Coleridge, North Carolina
Current Conditions -  °F | °C
As of 3:15 AM on Thursday 18 Dec 2014 (Local Time) from K5W8 Reporting Station
Clear Clear  
Wind Chill: 30°   Ceiling: Unl
Heat Index: 30°   Visibility: 10mi
Dew Point: 30°   Wind: 0mph
Humidity: 99%   Direction: NA
Pressure: 30.11"   Gusts: NA
Location:  35.6832°N, 79.6174°W
Report Text: K5W8 180815Z AUTO 00000KT 10SM CLR M01/M01 A3011 RMK AO2 T10101011
Loading
Personal Weather Stations






























Interactive Weather Map New forecast layout! Learn more

10-Day Weather Forecast

Advertisements
Track Severe Weather on mobile